CAY200 MWCR-KTPA
Flight info
| Callsign | CAY200 |
|---|---|
| Flight time | N/A |
| Altitude | 34000 |
| Route | XOPUT UL333 RAKAR UM219 MYDIA M219 CULLY DCT CHRGE RAYZZ3 |
| Aircraft | B738/M-SDE2E3FGHIRWXY/LB1 |
Departure
| Time | N/A |
|---|---|
| Airport | Owen Roberts International Airport (MWCR) |
Arrival
| Time | 2026-05-05 11:03 |
|---|---|
| Airport | Tampa International Airport (KTPA) |
| Time | Latitude | Longitude | Altitude | Speed | Heading |
|---|---|---|---|---|---|
| 2026-05-05 10:44 | 27.90709 | -83.25551 | 11249 ft | 387 kts | 85° |
| 2026-05-05 10:44 | 27.90942 | -83.22547 | 10819 ft | 381 kts | 85° |
| 2026-05-05 10:45 | 27.91171 | -83.19583 | 10394 ft | 376 kts | 85° |
| 2026-05-05 10:45 | 27.91501 | -83.16712 | 9981 ft | 361 kts | 74° |
| 2026-05-05 10:45 | 27.92465 | -83.14193 | 9795 ft | 339 kts | 63° |
| 2026-05-05 10:45 | 27.93512 | -83.11913 | 9583 ft | 323 kts | 63° |
| 2026-05-05 10:46 | 27.94520 | -83.09715 | 9388 ft | 307 kts | 63° |
| 2026-05-05 10:46 | 27.95474 | -83.07619 | 9208 ft | 292 kts | 63° |
| 2026-05-05 10:46 | 27.96375 | -83.05621 | 9051 ft | 278 kts | 64° |
| 2026-05-05 10:46 | 27.97232 | -83.03710 | 8908 ft | 266 kts | 64° |
| 2026-05-05 10:47 | 27.98044 | -83.01891 | 8763 ft | 253 kts | 64° |
| 2026-05-05 10:47 | 27.98817 | -83.00155 | 8637 ft | 241 kts | 64° |
| 2026-05-05 10:47 | 27.99554 | -82.98498 | 8503 ft | 233 kts | 65° |
| 2026-05-05 10:47 | 28.00280 | -82.96862 | 8398 ft | 233 kts | 65° |
| 2026-05-05 10:48 | 28.01009 | -82.95218 | 8289 ft | 234 kts | 65° |
| 2026-05-05 10:48 | 28.01740 | -82.93569 | 8168 ft | 235 kts | 65° |
| 2026-05-05 10:48 | 28.02474 | -82.91914 | 8039 ft | 234 kts | 65° |
| 2026-05-05 10:48 | 28.03194 | -82.90290 | 7898 ft | 228 kts | 65° |
| 2026-05-05 10:49 | 28.03900 | -82.88696 | 7777 ft | 226 kts | 65° |
| 2026-05-05 10:49 | 28.04603 | -82.87109 | 7654 ft | 225 kts | 65° |
| 2026-05-05 10:49 | 28.05305 | -82.85522 | 7539 ft | 226 kts | 65° |
| 2026-05-05 10:49 | 28.05955 | -82.83910 | 7402 ft | 224 kts | 79° |
| 2026-05-05 10:50 | 28.05872 | -82.82218 | 7295 ft | 213 kts | 110° |
| 2026-05-05 10:50 | 28.05456 | -82.80614 | 7196 ft | 213 kts | 108° |
| 2026-05-05 10:50 | 28.05058 | -82.79003 | 7090 ft | 212 kts | 108° |
| 2026-05-05 10:50 | 28.04660 | -82.77394 | 6967 ft | 212 kts | 108° |
| 2026-05-05 10:51 | 28.04262 | -82.75787 | 6862 ft | 212 kts | 108° |
| 2026-05-05 10:51 | 28.03868 | -82.74199 | 6742 ft | 212 kts | 107° |
| 2026-05-05 10:51 | 28.03465 | -82.72571 | 6626 ft | 212 kts | 107° |
| 2026-05-05 10:51 | 28.03065 | -82.70957 | 6518 ft | 213 kts | 107° |
| 2026-05-05 10:52 | 28.02664 | -82.69343 | 6388 ft | 213 kts | 108° |
| 2026-05-05 10:52 | 28.02263 | -82.67731 | 6270 ft | 213 kts | 108° |
| 2026-05-05 10:52 | 28.01860 | -82.66112 | 6158 ft | 213 kts | 108° |
| 2026-05-05 10:52 | 28.01468 | -82.64536 | 6006 ft | 210 kts | 107° |
| 2026-05-05 10:53 | 28.01042 | -82.62974 | 5884 ft | 206 kts | 117° |
| 2026-05-05 10:53 | 28.00081 | -82.61850 | 5756 ft | 200 kts | 157° |
| 2026-05-05 10:53 | 27.98731 | -82.61527 | 5685 ft | 201 kts | 179° |
| 2026-05-05 10:53 | 27.97311 | -82.61584 | 5583 ft | 206 kts | 181° |
| 2026-05-05 10:54 | 27.95867 | -82.61655 | 5476 ft | 210 kts | 181° |
| 2026-05-05 10:54 | 27.94399 | -82.61721 | 5353 ft | 212 kts | 181° |
| 2026-05-05 10:54 | 27.92923 | -82.61785 | 5230 ft | 212 kts | 181° |
| 2026-05-05 10:54 | 27.91456 | -82.61846 | 5105 ft | 210 kts | 181° |
| 2026-05-05 10:55 | 27.90005 | -82.61906 | 5014 ft | 208 kts | 181° |
| 2026-05-05 10:55 | 27.88565 | -82.61964 | 5006 ft | 207 kts | 180° |
| 2026-05-05 10:55 | 27.87130 | -82.62021 | 5010 ft | 206 kts | 180° |
| 2026-05-05 10:55 | 27.85690 | -82.62078 | 5000 ft | 207 kts | 180° |
| 2026-05-05 10:56 | 27.84249 | -82.62134 | 4975 ft | 207 kts | 180° |
| 2026-05-05 10:56 | 27.82810 | -82.62191 | 4978 ft | 207 kts | 180° |
| 2026-05-05 10:56 | 27.81391 | -82.62247 | 4988 ft | 207 kts | 180° |
| 2026-05-05 10:56 | 27.79947 | -82.62304 | 4978 ft | 208 kts | 179° |
| 2026-05-05 10:57 | 27.78501 | -82.62360 | 4975 ft | 208 kts | 180° |
| 2026-05-05 10:57 | 27.77066 | -82.62416 | 4971 ft | 207 kts | 180° |
| 2026-05-05 10:57 | 27.75628 | -82.62411 | 4955 ft | 206 kts | 168° |
| 2026-05-05 10:57 | 27.74342 | -82.61700 | 4727 ft | 211 kts | 132° |
| 2026-05-05 10:58 | 27.73682 | -82.60269 | 4499 ft | 208 kts | 97° |
| 2026-05-05 10:58 | 27.73900 | -82.58691 | 4300 ft | 205 kts | 62° |
| 2026-05-05 10:58 | 27.74497 | -82.57888 | 4246 ft | 201 kts | 38° |
| 2026-05-05 10:58 | 27.75778 | -82.57230 | 4048 ft | 206 kts | 21° |
| 2026-05-05 10:59 | 27.77140 | -82.56672 | 3761 ft | 209 kts | 23° |
| 2026-05-05 10:59 | 27.78513 | -82.56102 | 3491 ft | 211 kts | 23° |
| 2026-05-05 10:59 | 27.79898 | -82.55528 | 3233 ft | 213 kts | 23° |
| 2026-05-05 10:59 | 27.81294 | -82.54954 | 2955 ft | 214 kts | 22° |
| 2026-05-05 11:00 | 27.82772 | -82.54653 | 2676 ft | 219 kts | 6° |
| 2026-05-05 11:00 | 27.84309 | -82.54631 | 2386 ft | 221 kts | 4° |
| 2026-05-05 11:00 | 27.85855 | -82.54592 | 2092 ft | 223 kts | 5° |
| 2026-05-05 11:00 | 27.87415 | -82.54539 | 1794 ft | 225 kts | 5° |
| 2026-05-05 11:01 | 27.88955 | -82.54487 | 1499 ft | 215 kts | 5° |
| 2026-05-05 11:01 | 27.90400 | -82.54440 | 1215 ft | 200 kts | 6° |
| 2026-05-05 11:01 | 27.91742 | -82.54394 | 969 ft | 186 kts | 6° |
| 2026-05-05 11:01 | 27.92989 | -82.54352 | 736 ft | 174 kts | 5° |
| 2026-05-05 11:02 | 27.94175 | -82.54311 | 538 ft | 173 kts | 6° |
| 2026-05-05 11:02 | 27.95367 | -82.54292 | 307 ft | 170 kts | 6° |
| 2026-05-05 11:02 | 27.96518 | -82.54235 | 95 ft | 163 kts | 5° |
| 2026-05-05 11:02 | 27.97558 | -82.54193 | 46 ft | 130 kts | 1° |
| 2026-05-05 11:03 | 27.98301 | -82.54169 | 50 ft | 74 kts | 2° |
| 2026-05-05 11:03 | 27.98637 | -82.54157 | 50 ft | 23 kts | 9° |
| 2026-05-05 11:03 | 27.98685 | -82.54068 | 48 ft | 10 kts | 95° |
| 2026-05-05 11:03 | 27.98685 | -82.54064 | 48 ft | 0 kts | 95° |
| 2026-05-05 11:05 | 27.98683 | -82.54045 | 48 ft | 6 kts | 97° |
| 2026-05-05 11:05 | 27.98659 | -82.53970 | 46 ft | 13 kts | 134° |
| 2026-05-05 11:05 | 27.98567 | -82.53953 | 47 ft | 16 kts | 180° |
| 2026-05-05 11:05 | 27.98448 | -82.53957 | 47 ft | 18 kts | 181° |
| 2026-05-05 11:06 | 27.98325 | -82.53961 | 46 ft | 17 kts | 181° |
| 2026-05-05 11:06 | 27.98209 | -82.53963 | 46 ft | 16 kts | 181° |
| 2026-05-05 11:06 | 27.98099 | -82.53968 | 44 ft | 16 kts | 183° |
| 2026-05-05 11:06 | 27.97993 | -82.53973 | 44 ft | 15 kts | 182° |
| 2026-05-05 11:07 | 27.97872 | -82.53976 | 44 ft | 22 kts | 181° |
| 2026-05-05 11:07 | 27.97699 | -82.53980 | 45 ft | 22 kts | 181° |
| 2026-05-05 11:07 | 27.97592 | -82.53885 | 42 ft | 18 kts | 124° |
| 2026-05-05 11:07 | 27.97545 | -82.53779 | 43 ft | 13 kts | 88° |
| 2026-05-05 11:08 | 27.97587 | -82.53719 | 42 ft | 5 kts | 36° |
| 2026-05-05 11:08 | 27.97589 | -82.53718 | 42 ft | 0 kts | 36° |